createdAt,value
2022-10-11T00:01:30.874Z,13.43
2022-10-11T00:03:57.155Z,11.23
2022-10-11T00:06:23.462Z,11.35
2022-10-11T00:08:49.715Z,11.90
2022-10-11T00:11:15.945Z,7.95
2022-10-11T00:13:42.147Z,10.77
2022-10-11T00:16:11.710Z,7.55
2022-10-11T00:18:38.540Z,18.85
2022-10-11T00:21:06.596Z,5.15
2022-10-11T00:23:33.275Z,8.30
2022-10-11T00:26:00.335Z,8.45
2022-10-11T00:28:26.769Z,11.98
2022-10-11T00:30:53.331Z,10.50
2022-10-11T00:33:19.610Z,8.10
2022-10-11T00:35:45.943Z,8.25
2022-10-11T00:38:12.220Z,11.55
2022-10-11T00:40:38.491Z,10.27
2022-10-11T00:43:04.756Z,7.97
2022-10-11T00:45:30.954Z,6.07
2022-10-11T00:48:04.656Z,10.90
2022-10-11T00:50:32.945Z,14.20
2022-10-11T00:53:01.328Z,8.60
2022-10-11T00:55:29.296Z,9.82
2022-10-11T00:57:56.362Z,10.40
2022-10-11T01:00:22.580Z,10.27
2022-10-11T01:02:48.941Z,7.80
2022-10-11T01:05:31.926Z,9.68
2022-10-11T01:08:01.841Z,8.40
2022-10-11T01:10:28.604Z,6.77
2022-10-11T01:13:13.586Z,10.35
2022-10-11T01:15:50.243Z,8.20
2022-10-11T01:18:21.975Z,10.45
2022-10-11T01:20:52.554Z,8.43
2022-10-11T01:23:21.834Z,11.82
2022-10-11T01:25:54.059Z,8.98
2022-10-11T01:28:38.987Z,7.63
2022-10-11T01:31:14.323Z,7.47
2022-10-11T01:33:45.235Z,6.07
2022-10-11T01:36:30.506Z,7.40
2022-10-11T01:38:59.431Z,7.78
2022-10-11T01:41:28.289Z,7.63
2022-10-11T01:43:57.166Z,9.35
2022-10-11T01:46:23.810Z,9.20
2022-10-11T01:48:51.091Z,7.90
2022-10-11T01:51:19.647Z,9.20
2022-10-11T01:53:54.964Z,15.25
2022-10-11T01:56:25.971Z,7.78
2022-10-11T01:59:10.990Z,6.88
2022-10-11T02:01:48.756Z,5.25
2022-10-11T02:04:29.981Z,4.00
2022-10-11T02:07:03.639Z,6.30
2022-10-11T02:09:37.384Z,7.78
2022-10-11T02:12:07.091Z,6.53
2022-10-11T02:14:36.090Z,6.27
2022-10-11T02:17:07.676Z,8.45
2022-10-11T02:19:53.164Z,10.50
2022-10-11T02:22:21.922Z,6.03
2022-10-11T02:24:50.394Z,14.10
2022-10-11T02:27:19.684Z,11.15
2022-10-11T02:29:47.460Z,6.43
2022-10-11T02:32:14.744Z,4.65
2022-10-11T02:35:07.202Z,7.38
2022-10-11T02:37:42.200Z,4.90
2022-10-11T02:40:15.836Z,6.00
2022-10-11T02:42:44.885Z,8.05
2022-10-11T02:45:23.596Z,7.68
2022-10-11T02:47:49.896Z,6.10
2022-10-11T02:50:16.367Z,8.07
2022-10-11T02:52:42.571Z,14.75
2022-10-11T02:55:09.146Z,7.68
2022-10-11T02:57:35.615Z,9.55
2022-10-11T03:00:01.995Z,5.10
2022-10-11T03:02:28.220Z,5.15
2022-10-11T03:04:54.435Z,3.42
2022-10-11T03:07:20.668Z,7.65
2022-10-11T03:09:46.935Z,7.72
2022-10-11T03:12:13.198Z,7.63
2022-10-11T03:14:39.424Z,8.40
2022-10-11T03:17:30.958Z,6.25
2022-10-11T03:19:51.944Z,5.55
2022-10-11T03:22:18.192Z,9.02
2022-10-11T03:24:44.424Z,8.30
2022-10-11T03:27:10.647Z,8.85
2022-10-11T03:29:36.859Z,9.32
2022-10-11T03:32:03.317Z,7.03
2022-10-11T03:34:29.589Z,3.20
2022-10-11T03:36:55.828Z,8.85
2022-10-11T03:39:22.128Z,7.28
2022-10-11T03:41:48.485Z,5.93
2022-10-11T03:44:14.735Z,4.32
2022-10-11T03:46:40.990Z,8.68
2022-10-11T03:49:07.243Z,8.90
2022-10-11T03:51:33.495Z,4.95
2022-10-11T03:53:59.723Z,5.30
2022-10-11T03:56:25.979Z,7.10
2022-10-11T03:58:52.211Z,10.63
2022-10-11T04:01:18.544Z,5.95
2022-10-11T04:03:45.023Z,4.78
2022-10-11T04:06:11.355Z,5.75
2022-10-11T04:08:37.584Z,3.65
2022-10-11T04:11:03.879Z,4.47
2022-10-11T04:13:30.290Z,8.65
2022-10-11T04:15:56.492Z,6.30
2022-10-11T04:18:22.782Z,6.72
2022-10-11T04:20:49.007Z,8.43
2022-10-11T04:23:15.291Z,7.97
2022-10-11T04:25:41.535Z,10.73
2022-10-11T04:28:08.870Z,10.40
2022-10-11T04:30:35.124Z,7.45
2022-10-11T04:33:01.373Z,4.75
2022-10-11T04:35:27.644Z,3.13
2022-10-11T04:37:53.923Z,10.95
2022-10-11T04:40:20.175Z,8.10
2022-10-11T04:42:46.422Z,5.78
2022-10-11T04:45:12.748Z,2.80
2022-10-11T04:47:40.383Z,11.25
2022-10-11T04:50:06.733Z,3.33
2022-10-11T04:52:32.942Z,6.05
2022-10-11T04:54:59.216Z,8.73
2022-10-11T04:57:25.436Z,12.85
2022-10-11T04:59:51.696Z,8.65
2022-10-11T05:02:18.119Z,8.93
2022-10-11T05:04:44.494Z,11.05
2022-10-11T05:07:10.699Z,6.32
2022-10-11T05:09:36.992Z,12.77
2022-10-11T05:12:03.436Z,8.38
2022-10-11T05:14:29.692Z,12.10
2022-10-11T05:16:55.919Z,7.40
2022-10-11T05:19:22.136Z,12.25
2022-10-11T05:21:48.408Z,13.57
2022-10-11T05:24:14.651Z,6.88
2022-10-11T05:26:41.027Z,10.75
2022-10-11T05:29:07.283Z,6.22
2022-10-11T05:31:33.610Z,18.42
2022-10-11T05:34:00.009Z,6.45
2022-10-11T05:36:26.211Z,13.20
2022-10-11T05:38:52.426Z,8.68
2022-10-11T05:41:18.652Z,9.38
2022-10-11T05:43:45.760Z,8.45
2022-10-11T05:46:12.466Z,6.63
2022-10-11T05:48:38.832Z,8.57
2022-10-11T05:51:06.070Z,10.30
2022-10-11T05:53:32.660Z,23.65
2022-10-11T05:55:59.066Z,17.20
2022-10-11T05:58:25.291Z,16.55
2022-10-11T06:00:51.610Z,10.73
2022-10-11T06:03:19.784Z,11.55
2022-10-11T06:05:46.100Z,16.42
2022-10-11T06:08:13.755Z,18.13
2022-10-11T06:10:40.074Z,17.83
2022-10-11T06:13:06.579Z,12.55
2022-10-11T06:15:33.225Z,11.95
2022-10-11T06:17:59.519Z,12.27
2022-10-11T06:20:26.088Z,12.73
2022-10-11T06:22:52.336Z,22.35
2022-10-11T06:25:18.570Z,17.10
2022-10-11T06:27:44.834Z,16.00
2022-10-11T06:30:11.275Z,13.98
2022-10-11T06:32:37.485Z,23.63
2022-10-11T06:35:05.439Z,32.83
2022-10-11T06:37:31.658Z,20.38
2022-10-11T06:39:57.986Z,16.00
2022-10-11T06:42:24.207Z,24.42
2022-10-11T06:44:50.519Z,16.38
2022-10-11T06:47:16.880Z,16.52
2022-10-11T06:49:43.161Z,25.45
2022-10-11T06:52:09.603Z,22.00
2022-10-11T06:54:35.833Z,32.78
2022-10-11T06:57:02.075Z,21.73
2022-10-11T06:59:28.287Z,18.35
2022-10-11T07:01:54.494Z,22.92
2022-10-11T07:04:20.725Z,13.95
2022-10-11T07:06:46.982Z,25.77
2022-10-11T07:09:13.199Z,17.20
2022-10-11T07:11:39.476Z,15.70
2022-10-11T07:14:07.725Z,11.77
2022-10-11T07:16:35.387Z,14.65
2022-10-11T07:19:02.446Z,16.73
2022-10-11T07:21:29.932Z,17.02
2022-10-11T07:23:56.176Z,15.30
2022-10-11T07:26:22.435Z,22.25
2022-10-11T07:28:48.793Z,18.73
2022-10-11T07:31:16.622Z,22.25
2022-10-11T07:33:43.043Z,13.82
2022-10-11T07:36:09.638Z,14.10
2022-10-11T07:38:38.552Z,23.02
2022-10-11T07:41:05.535Z,18.00
2022-10-11T07:43:31.913Z,9.13
2022-10-11T07:46:03.951Z,13.82
2022-10-11T07:48:33.043Z,18.02
2022-10-11T07:51:06.742Z,15.40
2022-10-11T07:53:37.496Z,28.40
2022-10-11T07:56:04.240Z,14.77
2022-10-11T07:58:31.042Z,16.05
2022-10-11T08:00:57.375Z,31.55
2022-10-11T08:03:23.635Z,30.15
2022-10-11T08:05:52.111Z,33.17
2022-10-11T08:08:19.138Z,33.05
2022-10-11T08:10:45.397Z,37.38
2022-10-11T08:13:11.625Z,25.85
2022-10-11T08:15:37.952Z,29.30
2022-10-11T08:18:04.403Z,19.42
2022-10-11T08:20:31.138Z,14.77
2022-10-11T08:22:57.355Z,11.15
2022-10-11T08:25:23.587Z,22.83
2022-10-11T08:27:49.953Z,17.98
2022-10-11T08:30:16.203Z,17.83
2022-10-11T08:32:42.590Z,16.35
2022-10-11T08:35:08.866Z,16.88
2022-10-11T08:37:35.083Z,18.35
2022-10-11T08:40:03.243Z,19.83
2022-10-11T08:42:38.660Z,20.60
2022-10-11T08:45:11.465Z,26.17
2022-10-11T08:47:42.688Z,25.45
2022-10-11T08:50:15.392Z,23.80
2022-10-11T08:52:47.401Z,15.30
2022-10-11T08:55:34.761Z,24.20
2022-10-11T08:58:01.218Z,11.75
2022-10-11T09:00:30.540Z,20.20
2022-10-11T09:03:09.483Z,17.08
2022-10-11T09:05:38.933Z,19.27
2022-10-11T09:08:05.144Z,16.73
2022-10-11T09:10:46.439Z,20.05
2022-10-11T09:13:31.174Z,14.43
2022-10-11T09:16:18.764Z,20.58
2022-10-11T09:18:56.659Z,18.55
2022-10-11T09:21:32.060Z,12.90
2022-10-11T09:24:01.842Z,33.80
2022-10-11T09:26:31.140Z,11.40
2022-10-11T09:29:01.122Z,19.73
2022-10-11T09:31:28.178Z,12.05
2022-10-11T09:33:55.490Z,21.25
2022-10-11T09:36:33.690Z,9.80
2022-10-11T09:39:07.515Z,12.90
2022-10-11T09:41:41.407Z,11.20
2022-10-11T09:44:08.557Z,13.48
2022-10-11T09:46:36.864Z,12.93
2022-10-11T09:49:07.291Z,20.08
2022-10-11T09:53:59.747Z,16.73
2022-10-11T09:56:27.416Z,11.05
2022-10-11T09:59:06.300Z,15.60
2022-10-11T10:01:33.520Z,24.60
2022-10-11T10:04:10.153Z,15.10
2022-10-11T10:06:36.688Z,17.77
2022-10-11T10:09:21.845Z,12.93
2022-10-11T10:11:48.406Z,15.35
2022-10-11T10:14:41.009Z,11.02
2022-10-11T10:17:14.398Z,15.13
2022-10-11T10:19:46.712Z,15.52
2022-10-11T10:22:19.939Z,9.20
2022-10-11T10:24:47.163Z,15.55
2022-10-11T10:27:13.350Z,13.00
2022-10-11T10:29:39.767Z,13.68
2022-10-11T10:32:14.868Z,20.17
2022-10-11T10:34:52.498Z,13.27
2022-10-11T10:37:36.302Z,10.23
2022-10-11T10:40:05.756Z,16.08
2022-10-11T10:42:32.556Z,12.95
2022-10-11T10:44:59.790Z,12.45
2022-10-11T10:47:34.725Z,17.05
2022-10-11T10:50:06.787Z,11.18
2022-10-11T10:52:33.189Z,11.02
2022-10-11T10:55:03.075Z,9.75
2022-10-11T11:00:04.576Z,11.82
2022-10-11T11:02:41.285Z,12.05
2022-10-11T11:05:32.800Z,9.77
2022-10-11T11:08:07.124Z,13.43
2022-10-11T11:10:45.156Z,11.25
2022-10-11T11:13:18.860Z,9.90
2022-10-11T11:15:51.663Z,12.45
2022-10-11T11:18:32.899Z,10.73
2022-10-11T11:20:59.089Z,13.25
2022-10-11T11:23:36.187Z,8.50
2022-10-11T11:26:22.656Z,14.85
2022-10-11T11:29:07.239Z,9.02
2022-10-11T11:31:33.667Z,18.20
2022-10-11T11:34:05.755Z,16.48
2022-10-11T11:36:44.023Z,16.40
2022-10-11T11:39:18.063Z,12.27
2022-10-11T11:41:48.396Z,18.50
2022-10-11T11:44:26.537Z,15.82
2022-10-11T11:46:54.259Z,13.30
2022-10-11T11:49:23.807Z,11.45
2022-10-11T11:51:51.002Z,15.50
2022-10-11T11:54:28.090Z,9.45
2022-10-11T11:57:23.515Z,10.85
2022-10-11T12:00:05.067Z,8.88
2022-10-11T12:02:41.583Z,11.95
2022-10-11T12:05:08.589Z,15.38
2022-10-11T12:07:47.730Z,14.90
2022-10-11T12:10:15.826Z,15.85
2022-10-11T12:12:42.415Z,11.63
2022-10-11T12:15:08.936Z,11.00
2022-10-11T12:17:58.328Z,13.55
2022-10-11T12:20:29.675Z,13.75
2022-10-11T12:23:00.586Z,17.17
2022-10-11T12:25:26.785Z,17.05
2022-10-11T12:27:54.104Z,43.80
2022-10-11T12:30:38.851Z,10.80
2022-10-11T12:33:06.135Z,13.68
2022-10-11T12:35:32.420Z,15.40
2022-10-11T12:38:10.635Z,11.30
2022-10-11T12:40:45.784Z,15.48
2022-10-11T12:43:15.070Z,13.10
2022-10-11T12:45:43.813Z,10.87
2022-10-11T12:48:14.931Z,9.73
2022-10-11T12:50:47.978Z,11.18
2022-10-11T12:53:41.035Z,15.15
2022-10-11T12:56:25.795Z,16.10
2022-10-11T12:59:01.411Z,16.60
2022-10-11T13:01:33.126Z,11.18
2022-10-11T13:04:11.207Z,13.10
2022-10-11T13:06:45.205Z,15.35
2022-10-11T13:09:11.419Z,10.88
2022-10-11T13:11:45.871Z,13.15
2022-10-11T13:14:19.002Z,10.57
2022-10-11T13:17:05.584Z,10.63
2022-10-11T13:19:33.262Z,10.43
2022-10-11T13:22:01.191Z,11.02
2022-10-11T13:24:34.156Z,9.57
2022-10-11T13:27:00.584Z,16.67
2022-10-11T13:29:38.103Z,12.73
2022-10-11T13:32:24.288Z,14.98
2022-10-11T13:37:27.029Z,14.18
2022-10-11T13:39:54.432Z,12.18
2022-10-11T13:42:23.356Z,9.50
2022-10-11T13:44:49.744Z,22.05
2022-10-11T13:47:18.262Z,14.38
2022-10-11T13:49:46.071Z,8.32
2022-10-11T13:52:18.476Z,10.45
2022-10-11T13:55:14.803Z,17.75
2022-10-11T13:57:43.374Z,16.02
2022-10-11T14:00:20.578Z,13.27
2022-10-11T14:02:48.235Z,16.35
2022-10-11T14:05:27.262Z,16.23
2022-10-11T14:07:53.827Z,16.17
2022-10-11T14:10:21.324Z,15.15
2022-10-11T14:12:57.822Z,9.45
2022-10-11T14:15:30.800Z,12.30
2022-10-11T14:17:57.259Z,9.07
2022-10-11T14:20:28.344Z,8.57
2022-10-11T14:22:57.200Z,10.77
2022-10-11T14:25:23.436Z,17.88
2022-10-11T14:27:50.710Z,16.40
2022-10-11T14:30:26.494Z,14.98
2022-10-11T14:32:54.899Z,18.95
2022-10-11T14:35:25.625Z,9.07
2022-10-11T14:37:52.160Z,11.18
2022-10-11T14:40:20.252Z,16.15
2022-10-11T14:42:46.746Z,12.52
2022-10-11T14:45:13.051Z,17.33
2022-10-11T14:47:42.773Z,12.88
2022-10-11T14:50:29.726Z,12.60
2022-10-11T14:52:56.350Z,11.18
2022-10-11T14:55:23.412Z,13.93
2022-10-11T14:57:49.818Z,15.80
2022-10-11T15:00:17.174Z,11.32
2022-10-11T15:02:43.381Z,15.82
2022-10-11T15:05:09.596Z,13.35
2022-10-11T15:07:35.801Z,14.88
2022-10-11T15:10:02.057Z,11.60
2022-10-11T15:12:28.345Z,12.25
2022-10-11T15:14:54.733Z,10.82
2022-10-11T15:17:20.938Z,13.73
2022-10-11T15:19:47.146Z,9.48
2022-10-11T15:22:13.363Z,20.70
2022-10-11T15:24:39.578Z,16.73
2022-10-11T15:27:05.778Z,10.32
2022-10-11T15:29:32.063Z,13.20
2022-10-11T15:31:58.286Z,16.33
2022-10-11T15:34:24.691Z,12.55
2022-10-11T15:36:51.169Z,10.45
2022-10-11T15:39:27.883Z,13.35
2022-10-11T15:41:54.147Z,13.13
2022-10-11T15:44:20.364Z,9.90
2022-10-11T15:46:46.618Z,10.38
2022-10-11T15:49:13.381Z,20.42
2022-10-11T15:51:39.927Z,13.73
2022-10-11T15:54:06.636Z,12.07
2022-10-11T15:56:33.878Z,14.45
2022-10-11T15:59:00.374Z,20.08
2022-10-11T16:01:27.187Z,13.45
2022-10-11T16:03:53.507Z,15.98
2022-10-11T16:06:19.735Z,16.38
2022-10-11T16:08:45.985Z,14.82
2022-10-11T16:11:12.880Z,14.82
2022-10-11T16:13:39.414Z,10.45
2022-10-11T16:16:06.915Z,12.90
2022-10-11T16:18:35.741Z,14.77
2022-10-11T16:21:05.311Z,16.08
2022-10-11T16:23:31.819Z,12.65
2022-10-11T16:25:59.109Z,18.30
2022-10-11T16:28:25.661Z,15.65
2022-10-11T16:30:52.089Z,19.45
2022-10-11T16:33:18.351Z,14.23
2022-10-11T16:35:44.563Z,15.00
2022-10-11T16:38:10.851Z,14.10
2022-10-11T16:40:37.873Z,18.58
2022-10-11T16:43:07.927Z,16.08
2022-10-11T16:45:34.710Z,14.73
2022-10-11T16:48:01.181Z,27.13
2022-10-11T16:50:27.529Z,9.55
2022-10-11T16:52:55.379Z,17.10
2022-10-11T16:55:22.268Z,13.75
2022-10-11T16:57:48.595Z,13.75
2022-10-11T17:00:15.060Z,18.45
2022-10-11T17:02:41.290Z,8.25
2022-10-11T17:05:07.666Z,16.52
2022-10-11T17:07:34.198Z,17.42
2022-10-11T17:10:01.076Z,13.50
2022-10-11T17:12:27.855Z,11.77
2022-10-11T17:14:54.219Z,15.88
2022-10-11T17:17:20.528Z,15.30
2022-10-11T17:19:47.617Z,15.10
2022-10-11T17:22:15.600Z,15.43
2022-10-11T17:24:41.830Z,12.50
2022-10-11T17:27:08.327Z,17.23
2022-10-11T17:29:34.569Z,12.93
2022-10-11T17:32:01.294Z,14.18
2022-10-11T17:34:27.718Z,17.58
2022-10-11T17:36:53.956Z,15.07
2022-10-11T17:39:21.585Z,36.33
2022-10-11T17:41:47.926Z,25.35
2022-10-11T17:44:17.451Z,42.75
2022-10-11T17:46:43.931Z,40.03
2022-10-11T17:49:11.054Z,41.55
2022-10-11T17:51:37.497Z,49.15
2022-10-11T17:54:04.099Z,28.17
2022-10-11T17:56:35.035Z,19.48
2022-10-11T17:59:03.794Z,22.42
2022-10-11T18:01:30.293Z,18.98
2022-10-11T18:03:57.894Z,22.40
2022-10-11T18:06:28.812Z,21.02
2022-10-11T18:08:55.749Z,17.88
2022-10-11T18:11:22.147Z,29.48
2022-10-11T18:13:49.308Z,24.08
2022-10-11T18:16:17.241Z,15.70
2022-10-11T18:18:43.879Z,17.08
2022-10-11T18:21:10.586Z,23.15
2022-10-11T18:23:38.166Z,13.48
2022-10-11T18:26:10.230Z,19.55
2022-10-11T18:28:36.524Z,16.65
2022-10-11T18:31:11.611Z,18.00
2022-10-11T18:33:38.993Z,11.88
2022-10-11T18:36:06.719Z,11.93
2022-10-11T18:38:34.095Z,17.23
2022-10-11T18:41:05.319Z,18.90
2022-10-11T18:43:31.871Z,14.00
2022-10-11T18:46:05.418Z,10.35
2022-10-11T18:48:34.414Z,16.55
2022-10-11T18:51:05.047Z,23.85
2022-10-11T18:53:32.205Z,16.70
2022-10-11T18:56:01.937Z,21.63
2022-10-11T18:58:31.731Z,15.70
2022-10-11T19:01:08.123Z,15.20
2022-10-11T19:03:35.406Z,16.85
2022-10-11T19:06:05.895Z,14.57
2022-10-11T19:11:04.494Z,17.05
2022-10-11T19:13:30.753Z,15.68
2022-10-11T19:16:02.195Z,14.88
2022-10-11T19:18:28.415Z,16.95
2022-10-11T19:20:54.695Z,11.95
2022-10-11T19:23:20.965Z,17.35
2022-10-11T19:25:47.178Z,16.98
2022-10-11T19:28:15.718Z,12.20
2022-10-11T19:30:42.282Z,14.93
2022-10-11T19:33:08.583Z,12.02
2022-10-11T19:35:34.791Z,14.98
2022-10-11T19:38:01.134Z,9.82
2022-10-11T19:40:29.149Z,11.63
2022-10-11T19:42:57.918Z,20.38
2022-10-11T19:45:24.170Z,18.83
2022-10-11T19:47:50.387Z,13.82
2022-10-11T19:50:16.666Z,19.63
2022-10-11T19:52:44.985Z,11.60
2022-10-11T19:55:11.382Z,15.25
2022-10-11T19:57:37.651Z,11.82
2022-10-11T20:00:04.151Z,12.60
2022-10-11T20:02:30.674Z,19.70
2022-10-11T20:04:57.056Z,14.85
2022-10-11T20:07:23.339Z,14.77
2022-10-11T20:09:49.572Z,14.13
2022-10-11T20:12:15.816Z,11.50
2022-10-11T20:14:42.030Z,9.65
2022-10-11T20:17:08.347Z,16.73
2022-10-11T20:19:34.586Z,14.23
2022-10-11T20:22:00.952Z,10.35
2022-10-11T20:24:32.033Z,13.27
2022-10-11T20:26:58.426Z,8.95
2022-10-11T20:29:25.279Z,11.23
2022-10-11T20:31:51.536Z,9.95
2022-10-11T20:34:17.909Z,10.35
2022-10-11T20:36:48.934Z,14.85
2022-10-11T20:39:15.711Z,6.32
2022-10-11T20:41:42.808Z,12.68
2022-10-11T20:44:09.675Z,15.85
2022-10-11T20:46:37.412Z,10.50
2022-10-11T20:49:05.103Z,13.90
2022-10-11T20:51:32.829Z,7.25
2022-10-11T20:53:59.358Z,8.80
2022-10-11T20:56:25.681Z,5.68
2022-10-11T20:58:53.100Z,8.27
2022-10-11T21:01:20.706Z,9.35
2022-10-11T21:03:47.134Z,12.52
2022-10-11T21:06:13.665Z,5.93
2022-10-11T21:08:40.066Z,8.75
2022-10-11T21:11:06.946Z,9.05
2022-10-11T21:13:33.489Z,6.38
2022-10-11T21:16:03.414Z,6.80
2022-10-11T21:18:29.875Z,9.27
2022-10-11T21:20:56.086Z,14.27
2022-10-11T21:23:22.293Z,8.32
2022-10-11T21:25:48.648Z,12.77
2022-10-11T21:28:14.944Z,10.52
2022-10-11T21:30:41.346Z,6.47
2022-10-11T21:33:07.567Z,9.23
2022-10-11T21:35:33.825Z,12.73
2022-10-11T21:38:01.439Z,11.40
2022-10-11T21:40:27.786Z,7.05
2022-10-11T21:42:54.124Z,9.93
2022-10-11T21:45:20.451Z,13.93
2022-10-11T21:47:46.763Z,19.00
2022-10-11T21:50:13.023Z,15.02
2022-10-11T21:52:39.257Z,17.02
2022-10-11T21:55:05.624Z,9.50
2022-10-11T21:57:31.911Z,10.63
2022-10-11T21:59:58.144Z,12.35
2022-10-11T22:02:24.379Z,8.70
2022-10-11T22:04:50.666Z,9.68
2022-10-11T22:07:16.926Z,11.00
2022-10-11T22:09:43.135Z,28.88
2022-10-11T22:12:09.427Z,16.42
2022-10-11T22:14:35.761Z,9.60
2022-10-11T22:17:01.996Z,9.48
2022-10-11T22:19:28.218Z,8.70
2022-10-11T22:21:54.443Z,12.27
2022-10-11T22:24:20.705Z,10.52
2022-10-11T22:26:47.031Z,12.10
2022-10-11T22:29:13.255Z,8.82
2022-10-11T22:31:39.527Z,8.05
2022-10-11T22:34:05.754Z,10.05
2022-10-11T22:36:33.509Z,8.98
2022-10-11T22:38:59.847Z,9.90
2022-10-11T22:41:26.255Z,12.23
2022-10-11T22:43:52.536Z,15.05
2022-10-11T22:46:18.755Z,5.93
2022-10-11T22:48:44.961Z,10.93
2022-10-11T22:51:11.220Z,9.70
2022-10-11T22:53:38.245Z,10.00
2022-10-11T22:56:04.643Z,8.70
2022-10-11T22:58:30.915Z,12.30
2022-10-11T23:00:57.165Z,12.65
2022-10-11T23:03:23.667Z,8.60
2022-10-11T23:05:53.821Z,7.53
2022-10-11T23:08:20.056Z,8.80
2022-10-11T23:10:46.273Z,9.15
2022-10-11T23:13:12.491Z,9.43
2022-10-11T23:15:41.467Z,15.73
2022-10-11T23:18:07.707Z,7.28
2022-10-11T23:20:33.995Z,9.05
2022-10-11T23:23:00.220Z,7.53
2022-10-11T23:25:26.431Z,7.70
2022-10-11T23:27:52.642Z,7.22
2022-10-11T23:30:18.959Z,11.23
2022-10-11T23:32:45.196Z,5.80
2022-10-11T23:35:11.419Z,13.50
2022-10-11T23:37:38.100Z,13.23
2022-10-11T23:40:04.813Z,9.38
2022-10-11T23:42:31.022Z,10.35
2022-10-11T23:44:57.259Z,6.13
2022-10-11T23:47:23.475Z,11.43
2022-10-11T23:49:49.762Z,7.32
2022-10-11T23:52:16.012Z,9.38
2022-10-11T23:54:42.273Z,9.98
2022-10-11T23:57:08.555Z,5.80
2022-10-11T23:59:34.754Z,7.55
